sensor_id;sensor_type;location;lat;lon;timestamp;P1;durP1;ratioP1;P2;durP2;ratioP2
44446;SDS011;30152;52.066;5.358;2023-05-07T07:07:19;35.80;;;25.88;;
44446;SDS011;30152;52.066;5.358;2023-05-07T07:09:44;42.83;;;32.88;;
44446;SDS011;30152;52.066;5.358;2023-05-07T07:12:10;44.33;;;31.15;;
44446;SDS011;30152;52.066;5.358;2023-05-07T07:14:36;53.00;;;41.58;;
44446;SDS011;30152;52.066;5.358;2023-05-07T07:17:02;40.72;;;29.92;;
44446;SDS011;30152;52.066;5.358;2023-05-07T07:19:30;35.00;;;23.90;;
44446;SDS011;30152;52.066;5.358;2023-05-07T07:21:56;32.05;;;22.45;;
44446;SDS011;30152;52.066;5.358;2023-05-07T07:24:21;29.50;;;21.83;;
44446;SDS011;30152;52.066;5.358;2023-05-07T07:26:47;28.30;;;20.88;;
44446;SDS011;30152;52.066;5.358;2023-05-07T07:29:13;30.58;;;21.77;;
44446;SDS011;30152;52.066;5.358;2023-05-07T07:31:39;32.38;;;22.48;;
44446;SDS011;30152;52.066;5.358;2023-05-07T07:34:05;30.38;;;21.38;;
44446;SDS011;30152;52.066;5.358;2023-05-07T07:36:30;30.63;;;22.27;;
44446;SDS011;30152;52.066;5.358;2023-05-07T07:38:56;28.90;;;20.60;;
44446;SDS011;30152;52.066;5.358;2023-05-07T07:41:22;33.22;;;22.42;;
44446;SDS011;30152;52.066;5.358;2023-05-07T07:43:47;34.40;;;24.05;;
44446;SDS011;30152;52.066;5.358;2023-05-07T07:46:13;34.85;;;25.73;;
44446;SDS011;30152;52.066;5.358;2023-05-07T07:48:39;30.88;;;21.42;;
44446;SDS011;30152;52.066;5.358;2023-05-07T07:51:05;37.45;;;24.90;;
44446;SDS011;30152;52.066;5.358;2023-05-07T07:53:30;34.38;;;25.20;;
44446;SDS011;30152;52.066;5.358;2023-05-07T07:55:56;29.38;;;22.08;;
44446;SDS011;30152;52.066;5.358;2023-05-07T07:58:22;33.75;;;25.55;;
44446;SDS011;30152;52.066;5.358;2023-05-07T08:00:48;31.77;;;22.65;;
44446;SDS011;30152;52.066;5.358;2023-05-07T08:03:14;30.40;;;22.40;;
44446;SDS011;30152;52.066;5.358;2023-05-07T08:05:41;30.35;;;21.88;;
44446;SDS011;30152;52.066;5.358;2023-05-07T08:08:07;35.13;;;23.40;;
44446;SDS011;30152;52.066;5.358;2023-05-07T08:10:33;28.88;;;21.33;;
44446;SDS011;30152;52.066;5.358;2023-05-07T08:13:04;31.08;;;23.10;;
44446;SDS011;30152;52.066;5.358;2023-05-07T08:15:30;35.38;;;24.30;;
44446;SDS011;30152;52.066;5.358;2023-05-07T08:17:56;32.13;;;23.45;;
44446;SDS011;30152;52.066;5.358;2023-05-07T08:20:22;31.63;;;22.48;;
44446;SDS011;30152;52.066;5.358;2023-05-07T08:22:48;31.50;;;22.45;;
44446;SDS011;30152;52.066;5.358;2023-05-07T08:25:14;34.25;;;24.02;;
44446;SDS011;30152;52.066;5.358;2023-05-07T08:27:40;40.30;;;28.08;;
44446;SDS011;30152;52.066;5.358;2023-05-07T08:30:06;39.17;;;29.65;;
44446;SDS011;30152;52.066;5.358;2023-05-07T08:32:32;33.03;;;23.92;;
44446;SDS011;30152;52.066;5.358;2023-05-07T08:34:57;35.90;;;24.15;;
44446;SDS011;30152;52.066;5.358;2023-05-07T08:37:23;35.15;;;25.27;;
44446;SDS011;30152;52.066;5.358;2023-05-07T08:39:48;34.67;;;24.75;;
44446;SDS011;30152;52.066;5.358;2023-05-07T08:42:15;38.55;;;25.05;;
44446;SDS011;30152;52.066;5.358;2023-05-07T08:44:42;34.97;;;24.27;;
44446;SDS011;30152;52.066;5.358;2023-05-07T08:47:13;37.75;;;24.00;;
44446;SDS011;30152;52.066;5.358;2023-05-07T08:49:39;35.28;;;24.58;;
44446;SDS011;30152;52.066;5.358;2023-05-07T08:52:06;34.67;;;23.55;;
44446;SDS011;30152;52.066;5.358;2023-05-07T08:54:31;36.92;;;23.77;;
44446;SDS011;30152;52.066;5.358;2023-05-07T08:56:58;33.60;;;22.52;;
44446;SDS011;30152;52.066;5.358;2023-05-07T08:59:24;33.40;;;23.23;;
44446;SDS011;30152;52.066;5.358;2023-05-07T09:01:50;32.42;;;21.27;;
44446;SDS011;30152;52.066;5.358;2023-05-07T09:04:16;31.92;;;19.05;;
44446;SDS011;30152;52.066;5.358;2023-05-07T09:06:42;26.95;;;19.23;;
44446;SDS011;30152;52.066;5.358;2023-05-07T09:09:07;30.23;;;20.70;;
44446;SDS011;30152;52.066;5.358;2023-05-07T09:11:33;26.52;;;18.27;;
44446;SDS011;30152;52.066;5.358;2023-05-07T09:13:59;23.30;;;16.55;;
44446;SDS011;30152;52.066;5.358;2023-05-07T09:16:27;23.52;;;15.93;;
44446;SDS011;30152;52.066;5.358;2023-05-07T09:18:56;29.38;;;18.15;;
44446;SDS011;30152;52.066;5.358;2023-05-07T09:21:23;36.55;;;27.02;;
44446;SDS011;30152;52.066;5.358;2023-05-07T09:23:53;24.92;;;17.85;;
44446;SDS011;30152;52.066;5.358;2023-05-07T09:26:23;27.48;;;19.38;;
44446;SDS011;30152;52.066;5.358;2023-05-07T09:28:50;28.02;;;20.20;;
44446;SDS011;30152;52.066;5.358;2023-05-07T09:31:16;33.58;;;21.25;;
44446;SDS011;30152;52.066;5.358;2023-05-07T09:33:41;30.58;;;22.52;;
44446;SDS011;30152;52.066;5.358;2023-05-07T09:36:08;32.83;;;22.23;;
44446;SDS011;30152;52.066;5.358;2023-05-07T09:38:35;35.63;;;23.10;;
44446;SDS011;30152;52.066;5.358;2023-05-07T09:41:11;32.55;;;21.85;;
44446;SDS011;30152;52.066;5.358;2023-05-07T09:43:38;34.70;;;22.25;;
44446;SDS011;30152;52.066;5.358;2023-05-07T09:46:14;29.73;;;22.52;;
44446;SDS011;30152;52.066;5.358;2023-05-07T09:48:42;32.97;;;24.60;;
44446;SDS011;30152;52.066;5.358;2023-05-07T09:53:50;35.45;;;24.77;;
44446;SDS011;30152;52.066;5.358;2023-05-07T09:56:18;31.65;;;23.88;;
44446;SDS011;30152;52.066;5.358;2023-05-07T09:58:45;30.70;;;22.65;;
44446;SDS011;30152;52.066;5.358;2023-05-07T10:01:11;34.50;;;25.52;;
44446;SDS011;30152;52.066;5.358;2023-05-07T10:03:38;29.98;;;21.73;;
44446;SDS011;30152;52.066;5.358;2023-05-07T10:06:05;31.60;;;22.52;;
44446;SDS011;30152;52.066;5.358;2023-05-07T10:08:33;30.75;;;22.67;;
44446;SDS011;30152;52.066;5.358;2023-05-07T10:11:00;33.28;;;23.60;;
44446;SDS011;30152;52.066;5.358;2023-05-07T10:13:27;31.30;;;21.25;;
44446;SDS011;30152;52.066;5.358;2023-05-07T10:15:54;30.50;;;21.52;;
44446;SDS011;30152;52.066;5.358;2023-05-07T10:18:20;30.38;;;20.70;;
44446;SDS011;30152;52.066;5.358;2023-05-07T10:23:24;28.58;;;20.58;;
44446;SDS011;30152;52.066;5.358;2023-05-07T10:25:51;32.20;;;21.85;;
44446;SDS011;30152;52.066;5.358;2023-05-07T10:28:19;32.17;;;22.65;;
44446;SDS011;30152;52.066;5.358;2023-05-07T10:33:33;30.55;;;21.27;;
44446;SDS011;30152;52.066;5.358;2023-05-07T10:36:01;32.03;;;21.60;;
44446;SDS011;30152;52.066;5.358;2023-05-07T10:38:29;30.15;;;22.80;;
44446;SDS011;30152;52.066;5.358;2023-05-07T10:40:55;30.92;;;20.38;;
44446;SDS011;30152;52.066;5.358;2023-05-07T10:43:21;29.55;;;20.58;;
44446;SDS011;30152;52.066;5.358;2023-05-07T10:48:34;29.58;;;21.10;;
44446;SDS011;30152;52.066;5.358;2023-05-07T10:51:31;27.20;;;19.50;;
44446;SDS011;30152;52.066;5.358;2023-05-07T10:56:41;25.67;;;18.10;;
44446;SDS011;30152;52.066;5.358;2023-05-07T11:04:20;25.60;;;16.63;;
44446;SDS011;30152;52.066;5.358;2023-05-07T11:07:19;26.13;;;17.17;;
44446;SDS011;30152;52.066;5.358;2023-05-07T11:13:03;26.77;;;17.25;;
44446;SDS011;30152;52.066;5.358;2023-05-07T11:15:07;24.58;;;17.95;;
44446;SDS011;30152;52.066;5.358;2023-05-07T11:17:34;26.00;;;18.45;;
44446;SDS011;30152;52.066;5.358;2023-05-07T11:20:16;26.27;;;17.10;;
44446;SDS011;30152;52.066;5.358;2023-05-07T11:22:42;26.80;;;18.08;;
44446;SDS011;30152;52.066;5.358;2023-05-07T11:25:08;28.48;;;18.73;;
44446;SDS011;30152;52.066;5.358;2023-05-07T11:27:34;26.02;;;17.30;;
44446;SDS011;30152;52.066;5.358;2023-05-07T11:29:59;29.70;;;20.48;;
44446;SDS011;30152;52.066;5.358;2023-05-07T11:32:29;25.88;;;18.85;;
44446;SDS011;30152;52.066;5.358;2023-05-07T11:34:56;27.63;;;19.50;;
44446;SDS011;30152;52.066;5.358;2023-05-07T11:37:23;33.22;;;20.25;;
44446;SDS011;30152;52.066;5.358;2023-05-07T11:39:50;26.85;;;19.45;;
44446;SDS011;30152;52.066;5.358;2023-05-07T11:44:55;26.42;;;18.10;;
44446;SDS011;30152;52.066;5.358;2023-05-07T11:47:21;26.95;;;18.48;;
44446;SDS011;30152;52.066;5.358;2023-05-07T11:49:47;28.10;;;17.20;;
44446;SDS011;30152;52.066;5.358;2023-05-07T11:52:17;24.10;;;17.20;;
44446;SDS011;30152;52.066;5.358;2023-05-07T11:54:53;25.15;;;17.27;;
44446;SDS011;30152;52.066;5.358;2023-05-07T11:57:23;25.20;;;16.23;;
44446;SDS011;30152;52.066;5.358;2023-05-07T12:00:07;25.98;;;17.60;;
44446;SDS011;30152;52.066;5.358;2023-05-07T12:02:34;24.75;;;16.75;;
44446;SDS011;30152;52.066;5.358;2023-05-07T12:05:00;24.00;;;16.77;;
44446;SDS011;30152;52.066;5.358;2023-05-07T12:07:25;22.70;;;15.40;;
44446;SDS011;30152;52.066;5.358;2023-05-07T12:09:51;22.90;;;13.93;;
44446;SDS011;30152;52.066;5.358;2023-05-07T12:12:17;24.83;;;14.63;;
44446;SDS011;30152;52.066;5.358;2023-05-07T12:14:43;19.35;;;13.57;;
44446;SDS011;30152;52.066;5.358;2023-05-07T12:17:11;21.10;;;12.70;;
44446;SDS011;30152;52.066;5.358;2023-05-07T12:19:39;21.15;;;13.73;;
44446;SDS011;30152;52.066;5.358;2023-05-07T12:22:05;19.48;;;13.95;;
44446;SDS011;30152;52.066;5.358;2023-05-07T12:27:36;17.75;;;11.25;;
44446;SDS011;30152;52.066;5.358;2023-05-07T12:30:02;16.65;;;10.43;;
44446;SDS011;30152;52.066;5.358;2023-05-07T12:32:28;15.02;;;8.55;;
44446;SDS011;30152;52.066;5.358;2023-05-07T12:34:54;17.95;;;9.60;;
44446;SDS011;30152;52.066;5.358;2023-05-07T12:37:23;15.65;;;9.70;;
44446;SDS011;30152;52.066;5.358;2023-05-07T12:40:03;15.65;;;9.50;;
44446;SDS011;30152;52.066;5.358;2023-05-07T12:42:36;16.83;;;10.10;;
44446;SDS011;30152;52.066;5.358;2023-05-07T12:45:11;12.50;;;7.63;;
44446;SDS011;30152;52.066;5.358;2023-05-07T12:47:38;18.70;;;8.93;;
44446;SDS011;30152;52.066;5.358;2023-05-07T12:50:07;14.70;;;7.68;;
44446;SDS011;30152;52.066;5.358;2023-05-07T12:52:33;11.90;;;7.03;;
44446;SDS011;30152;52.066;5.358;2023-05-07T12:55:04;11.75;;;6.63;;
44446;SDS011;30152;52.066;5.358;2023-05-07T12:57:30;14.35;;;6.70;;
44446;SDS011;30152;52.066;5.358;2023-05-07T13:00:03;12.18;;;6.13;;
44446;SDS011;30152;52.066;5.358;2023-05-07T13:02:33;10.93;;;6.13;;
44446;SDS011;30152;52.066;5.358;2023-05-07T13:04:59;14.35;;;6.10;;
44446;SDS011;30152;52.066;5.358;2023-05-07T13:07:25;12.27;;;6.28;;
44446;SDS011;30152;52.066;5.358;2023-05-07T13:09:51;14.27;;;6.60;;
44446;SDS011;30152;52.066;5.358;2023-05-07T13:12:17;11.27;;;5.70;;
44446;SDS011;30152;52.066;5.358;2023-05-07T13:14:42;11.88;;;5.82;;
44446;SDS011;30152;52.066;5.358;2023-05-07T13:17:08;12.38;;;4.97;;
44446;SDS011;30152;52.066;5.358;2023-05-07T13:19:34;12.73;;;6.35;;
44446;SDS011;30152;52.066;5.358;2023-05-07T13:21:59;16.60;;;6.20;;
44446;SDS011;30152;52.066;5.358;2023-05-07T13:24:25;10.45;;;6.18;;
44446;SDS011;30152;52.066;5.358;2023-05-07T13:26:50;11.93;;;6.68;;
44446;SDS011;30152;52.066;5.358;2023-05-07T13:29:16;10.48;;;5.60;;
44446;SDS011;30152;52.066;5.358;2023-05-07T13:31:41;12.40;;;6.25;;
44446;SDS011;30152;52.066;5.358;2023-05-07T13:34:08;10.05;;;6.18;;
44446;SDS011;30152;52.066;5.358;2023-05-07T13:36:34;10.80;;;6.18;;
44446;SDS011;30152;52.066;5.358;2023-05-07T13:39:04;10.82;;;5.78;;
44446;SDS011;30152;52.066;5.358;2023-05-07T13:41:31;10.70;;;5.65;;
44446;SDS011;30152;52.066;5.358;2023-05-07T13:43:56;10.82;;;5.65;;
44446;SDS011;30152;52.066;5.358;2023-05-07T13:46:21;10.95;;;5.72;;
44446;SDS011;30152;52.066;5.358;2023-05-07T13:48:48;13.30;;;5.93;;
44446;SDS011;30152;52.066;5.358;2023-05-07T13:51:14;10.40;;;5.90;;
44446;SDS011;30152;52.066;5.358;2023-05-07T13:53:39;11.13;;;6.60;;
44446;SDS011;30152;52.066;5.358;2023-05-07T13:56:05;12.98;;;7.53;;
44446;SDS011;30152;52.066;5.358;2023-05-07T13:58:31;17.70;;;9.25;;
44446;SDS011;30152;52.066;5.358;2023-05-07T14:00:56;18.88;;;11.27;;
44446;SDS011;30152;52.066;5.358;2023-05-07T14:03:22;20.70;;;11.93;;
44446;SDS011;30152;52.066;5.358;2023-05-07T14:05:47;18.73;;;12.00;;
44446;SDS011;30152;52.066;5.358;2023-05-07T14:08:13;20.67;;;12.27;;
44446;SDS011;30152;52.066;5.358;2023-05-07T14:10:40;19.00;;;12.52;;
44446;SDS011;30152;52.066;5.358;2023-05-07T14:13:05;21.70;;;14.00;;
44446;SDS011;30152;52.066;5.358;2023-05-07T14:15:31;20.15;;;14.63;;
44446;SDS011;30152;52.066;5.358;2023-05-07T14:17:57;19.30;;;13.48;;
44446;SDS011;30152;52.066;5.358;2023-05-07T14:20:24;24.95;;;11.98;;
44446;SDS011;30152;52.066;5.358;2023-05-07T14:22:50;21.20;;;13.43;;
44446;SDS011;30152;52.066;5.358;2023-05-07T14:25:16;19.52;;;14.13;;
44446;SDS011;30152;52.066;5.358;2023-05-07T14:27:42;18.70;;;13.80;;
44446;SDS011;30152;52.066;5.358;2023-05-07T14:30:07;21.58;;;12.65;;
44446;SDS011;30152;52.066;5.358;2023-05-07T14:32:34;17.80;;;12.27;;
44446;SDS011;30152;52.066;5.358;2023-05-07T14:34:59;19.75;;;13.02;;
44446;SDS011;30152;52.066;5.358;2023-05-07T14:37:25;20.52;;;13.50;;
44446;SDS011;30152;52.066;5.358;2023-05-07T14:39:50;19.88;;;13.70;;
44446;SDS011;30152;52.066;5.358;2023-05-07T14:42:16;18.63;;;12.90;;
44446;SDS011;30152;52.066;5.358;2023-05-07T14:44:42;18.77;;;14.15;;
44446;SDS011;30152;52.066;5.358;2023-05-07T14:47:09;20.30;;;13.27;;
44446;SDS011;30152;52.066;5.358;2023-05-07T14:49:35;22.13;;;14.70;;
44446;SDS011;30152;52.066;5.358;2023-05-07T14:52:01;25.55;;;16.30;;
44446;SDS011;30152;52.066;5.358;2023-05-07T14:54:27;22.02;;;13.70;;
44446;SDS011;30152;52.066;5.358;2023-05-07T14:56:52;20.90;;;14.57;;
44446;SDS011;30152;52.066;5.358;2023-05-07T14:59:19;22.20;;;15.15;;
44446;SDS011;30152;52.066;5.358;2023-05-07T15:01:46;25.23;;;15.90;;
44446;SDS011;30152;52.066;5.358;2023-05-07T15:04:12;22.20;;;14.75;;
44446;SDS011;30152;52.066;5.358;2023-05-07T15:06:38;22.73;;;15.88;;
44446;SDS011;30152;52.066;5.358;2023-05-07T15:09:03;23.05;;;15.60;;
44446;SDS011;30152;52.066;5.358;2023-05-07T15:11:29;23.10;;;15.10;;
44446;SDS011;30152;52.066;5.358;2023-05-07T15:13:55;24.90;;;15.68;;
44446;SDS011;30152;52.066;5.358;2023-05-07T15:16:20;22.33;;;14.95;;
44446;SDS011;30152;52.066;5.358;2023-05-07T15:18:46;25.73;;;15.52;;
44446;SDS011;30152;52.066;5.358;2023-05-07T15:21:12;21.02;;;14.57;;
44446;SDS011;30152;52.066;5.358;2023-05-07T15:23:38;20.70;;;14.00;;
44446;SDS011;30152;52.066;5.358;2023-05-07T15:26:04;20.52;;;14.18;;
44446;SDS011;30152;52.066;5.358;2023-05-07T15:28:30;11.70;;;7.43;;
44446;SDS011;30152;52.066;5.358;2023-05-07T15:30:56;11.75;;;5.50;;
44446;SDS011;30152;52.066;5.358;2023-05-07T15:33:23;9.60;;;4.60;;
44446;SDS011;30152;52.066;5.358;2023-05-07T15:35:48;8.73;;;4.60;;
44446;SDS011;30152;52.066;5.358;2023-05-07T15:38:14;7.18;;;3.83;;
44446;SDS011;30152;52.066;5.358;2023-05-07T15:40:40;7.50;;;3.88;;
44446;SDS011;30152;52.066;5.358;2023-05-07T15:43:07;12.82;;;4.18;;
44446;SDS011;30152;52.066;5.358;2023-05-07T15:45:38;6.88;;;3.50;;
44446;SDS011;30152;52.066;5.358;2023-05-07T15:48:05;9.68;;;3.55;;
44446;SDS011;30152;52.066;5.358;2023-05-07T15:50:31;9.52;;;3.80;;
44446;SDS011;30152;52.066;5.358;2023-05-07T15:52:57;13.38;;;4.25;;
44446;SDS011;30152;52.066;5.358;2023-05-07T15:55:23;9.32;;;4.32;;
44446;SDS011;30152;52.066;5.358;2023-05-07T15:57:49;9.20;;;4.45;;
44446;SDS011;30152;52.066;5.358;2023-05-07T16:00:15;8.75;;;3.90;;
44446;SDS011;30152;52.066;5.358;2023-05-07T16:02:42;14.70;;;4.68;;
44446;SDS011;30152;52.066;5.358;2023-05-07T16:05:08;8.07;;;4.15;;
44446;SDS011;30152;52.066;5.358;2023-05-07T16:07:35;8.25;;;4.57;;
44446;SDS011;30152;52.066;5.358;2023-05-07T16:10:01;7.63;;;3.95;;
44446;SDS011;30152;52.066;5.358;2023-05-07T16:12:28;10.05;;;4.00;;
44446;SDS011;30152;52.066;5.358;2023-05-07T16:14:54;7.72;;;3.95;;
44446;SDS011;30152;52.066;5.358;2023-05-07T16:17:20;7.80;;;3.72;;
44446;SDS011;30152;52.066;5.358;2023-05-07T16:19:45;7.72;;;4.32;;
44446;SDS011;30152;52.066;5.358;2023-05-07T16:22:11;6.75;;;3.50;;
44446;SDS011;30152;52.066;5.358;2023-05-07T16:24:37;10.13;;;3.28;;
44446;SDS011;30152;52.066;5.358;2023-05-07T16:27:03;5.82;;;2.85;;
44446;SDS011;30152;52.066;5.358;2023-05-07T16:29:30;6.88;;;2.92;;
44446;SDS011;30152;52.066;5.358;2023-05-07T16:31:56;6.43;;;2.75;;
44446;SDS011;30152;52.066;5.358;2023-05-07T16:34:22;8.23;;;3.03;;
44446;SDS011;30152;52.066;5.358;2023-05-07T16:36:48;7.85;;;3.10;;
44446;SDS011;30152;52.066;5.358;2023-05-07T16:39:14;5.47;;;2.92;;
44446;SDS011;30152;52.066;5.358;2023-05-07T16:41:39;6.85;;;3.33;;
44446;SDS011;30152;52.066;5.358;2023-05-07T16:44:05;9.65;;;3.60;;
44446;SDS011;30152;52.066;5.358;2023-05-07T16:46:33;11.43;;;3.95;;
44446;SDS011;30152;52.066;5.358;2023-05-07T16:48:59;12.55;;;4.32;;
44446;SDS011;30152;52.066;5.358;2023-05-07T16:51:25;8.80;;;3.65;;
44446;SDS011;30152;52.066;5.358;2023-05-07T16:53:51;9.43;;;4.18;;
44446;SDS011;30152;52.066;5.358;2023-05-07T16:56:17;9.02;;;3.95;;
44446;SDS011;30152;52.066;5.358;2023-05-07T16:58:43;7.35;;;3.88;;
44446;SDS011;30152;52.066;5.358;2023-05-07T17:01:09;7.13;;;3.92;;
44446;SDS011;30152;52.066;5.358;2023-05-07T17:03:36;10.00;;;4.55;;
44446;SDS011;30152;52.066;5.358;2023-05-07T17:06:02;9.73;;;4.22;;
44446;SDS011;30152;52.066;5.358;2023-05-07T17:08:28;7.35;;;3.90;;
44446;SDS011;30152;52.066;5.358;2023-05-07T17:10:53;8.48;;;4.60;;
44446;SDS011;30152;52.066;5.358;2023-05-07T17:13:19;8.32;;;4.35;;
44446;SDS011;30152;52.066;5.358;2023-05-07T17:15:45;9.43;;;4.28;;
44446;SDS011;30152;52.066;5.358;2023-05-07T17:18:11;7.35;;;4.18;;
44446;SDS011;30152;52.066;5.358;2023-05-07T17:20:37;10.02;;;5.25;;
44446;SDS011;30152;52.066;5.358;2023-05-07T17:23:06;10.70;;;5.00;;
44446;SDS011;30152;52.066;5.358;2023-05-07T17:25:33;9.25;;;5.43;;
44446;SDS011;30152;52.066;5.358;2023-05-07T17:27:58;8.07;;;5.70;;
44446;SDS011;30152;52.066;5.358;2023-05-07T17:30:24;9.45;;;5.53;;
44446;SDS011;30152;52.066;5.358;2023-05-07T17:32:50;9.60;;;6.03;;
44446;SDS011;30152;52.066;5.358;2023-05-07T17:35:18;8.90;;;5.50;;
44446;SDS011;30152;52.066;5.358;2023-05-07T17:37:44;11.63;;;5.70;;
44446;SDS011;30152;52.066;5.358;2023-05-07T17:40:16;9.23;;;6.07;;
44446;SDS011;30152;52.066;5.358;2023-05-07T17:42:42;10.55;;;5.95;;
44446;SDS011;30152;52.066;5.358;2023-05-07T17:45:07;9.93;;;6.18;;
44446;SDS011;30152;52.066;5.358;2023-05-07T17:47:33;12.27;;;6.22;;
44446;SDS011;30152;52.066;5.358;2023-05-07T17:49:59;11.00;;;6.78;;
44446;SDS011;30152;52.066;5.358;2023-05-07T17:52:26;10.27;;;6.00;;
44446;SDS011;30152;52.066;5.358;2023-05-07T17:54:52;10.55;;;6.88;;
44446;SDS011;30152;52.066;5.358;2023-05-07T17:57:19;10.85;;;6.53;;
44446;SDS011;30152;52.066;5.358;2023-05-07T17:59:45;9.98;;;6.88;;
44446;SDS011;30152;52.066;5.358;2023-05-07T18:02:10;8.95;;;7.07;;
44446;SDS011;30152;52.066;5.358;2023-05-07T18:04:36;10.95;;;7.43;;
44446;SDS011;30152;52.066;5.358;2023-05-07T18:07:02;12.95;;;7.40;;
44446;SDS011;30152;52.066;5.358;2023-05-07T18:09:28;12.40;;;8.32;;
44446;SDS011;30152;52.066;5.358;2023-05-07T18:11:53;12.25;;;8.15;;
44446;SDS011;30152;52.066;5.358;2023-05-07T18:14:19;14.05;;;8.68;;
44446;SDS011;30152;52.066;5.358;2023-05-07T18:16:48;13.73;;;9.73;;
44446;SDS011;30152;52.066;5.358;2023-05-07T18:19:13;18.55;;;10.73;;
44446;SDS011;30152;52.066;5.358;2023-05-07T18:21:39;12.98;;;9.88;;
44446;SDS011;30152;52.066;5.358;2023-05-07T18:24:05;13.38;;;9.93;;
44446;SDS011;30152;52.066;5.358;2023-05-07T18:26:31;13.02;;;10.32;;
44446;SDS011;30152;52.066;5.358;2023-05-07T18:28:56;15.85;;;11.10;;
44446;SDS011;30152;52.066;5.358;2023-05-07T18:31:22;14.32;;;10.98;;
44446;SDS011;30152;52.066;5.358;2023-05-07T18:33:50;14.23;;;10.90;;
44446;SDS011;30152;52.066;5.358;2023-05-07T18:36:16;13.43;;;10.82;;
44446;SDS011;30152;52.066;5.358;2023-05-07T18:38:42;15.52;;;11.52;;
44446;SDS011;30152;52.066;5.358;2023-05-07T18:41:07;15.60;;;12.05;;
44446;SDS011;30152;52.066;5.358;2023-05-07T18:43:33;16.55;;;12.27;;
44446;SDS011;30152;52.066;5.358;2023-05-07T18:45:58;18.98;;;12.23;;
44446;SDS011;30152;52.066;5.358;2023-05-07T18:48:24;15.77;;;12.30;;
44446;SDS011;30152;52.066;5.358;2023-05-07T18:50:50;18.00;;;12.20;;
44446;SDS011;30152;52.066;5.358;2023-05-07T18:53:16;19.10;;;12.35;;
44446;SDS011;30152;52.066;5.358;2023-05-07T18:55:42;15.45;;;11.50;;
44446;SDS011;30152;52.066;5.358;2023-05-07T18:58:10;16.48;;;12.90;;
44446;SDS011;30152;52.066;5.358;2023-05-07T19:00:36;19.65;;;12.85;;
44446;SDS011;30152;52.066;5.358;2023-05-07T19:03:01;13.68;;;11.82;;
44446;SDS011;30152;52.066;5.358;2023-05-07T19:05:27;14.20;;;11.77;;
44446;SDS011;30152;52.066;5.358;2023-05-07T19:07:53;20.17;;;13.98;;
44446;SDS011;30152;52.066;5.358;2023-05-07T19:10:19;17.70;;;13.65;;
44446;SDS011;30152;52.066;5.358;2023-05-07T19:12:45;18.92;;;14.65;;
44446;SDS011;30152;52.066;5.358;2023-05-07T19:15:11;18.67;;;14.35;;
44446;SDS011;30152;52.066;5.358;2023-05-07T19:17:36;20.35;;;13.55;;
44446;SDS011;30152;52.066;5.358;2023-05-07T19:20:02;19.33;;;14.98;;
44446;SDS011;30152;52.066;5.358;2023-05-07T19:22:28;15.95;;;13.13;;
44446;SDS011;30152;52.066;5.358;2023-05-07T19:24:54;25.85;;;13.27;;
44446;SDS011;30152;52.066;5.358;2023-05-07T19:27:20;19.00;;;14.20;;
44446;SDS011;30152;52.066;5.358;2023-05-07T19:29:45;16.42;;;13.57;;
44446;SDS011;30152;52.066;5.358;2023-05-07T19:32:11;17.75;;;13.82;;
44446;SDS011;30152;52.066;5.358;2023-05-07T19:34:37;16.70;;;13.75;;
44446;SDS011;30152;52.066;5.358;2023-05-07T19:37:03;16.42;;;12.93;;
44446;SDS011;30152;52.066;5.358;2023-05-07T19:39:32;18.05;;;12.77;;
44446;SDS011;30152;52.066;5.358;2023-05-07T19:41:57;16.77;;;13.18;;
44446;SDS011;30152;52.066;5.358;2023-05-07T19:44:23;19.90;;;14.13;;
44446;SDS011;30152;52.066;5.358;2023-05-07T19:46:49;18.05;;;14.02;;
44446;SDS011;30152;52.066;5.358;2023-05-07T19:49:16;19.90;;;13.73;;
44446;SDS011;30152;52.066;5.358;2023-05-07T19:51:42;19.65;;;13.52;;
44446;SDS011;30152;52.066;5.358;2023-05-07T19:54:08;19.25;;;14.55;;
44446;SDS011;30152;52.066;5.358;2023-05-07T19:56:33;23.40;;;14.63;;
44446;SDS011;30152;52.066;5.358;2023-05-07T19:58:59;18.63;;;13.93;;
44446;SDS011;30152;52.066;5.358;2023-05-07T20:01:25;23.70;;;16.35;;
44446;SDS011;30152;52.066;5.358;2023-05-07T20:03:52;19.50;;;15.05;;
44446;SDS011;30152;52.066;5.358;2023-05-07T20:06:18;28.40;;;16.77;;
44446;SDS011;30152;52.066;5.358;2023-05-07T20:08:44;23.83;;;16.90;;
44446;SDS011;30152;52.066;5.358;2023-05-07T20:11:10;19.27;;;15.52;;
44446;SDS011;30152;52.066;5.358;2023-05-07T20:13:37;18.45;;;15.07;;
44446;SDS011;30152;52.066;5.358;2023-05-07T20:16:02;19.88;;;15.95;;
44446;SDS011;30152;52.066;5.358;2023-05-07T20:18:28;19.15;;;14.60;;
44446;SDS011;30152;52.066;5.358;2023-05-07T20:20:54;20.40;;;14.30;;
44446;SDS011;30152;52.066;5.358;2023-05-07T20:23:20;19.13;;;14.38;;
44446;SDS011;30152;52.066;5.358;2023-05-07T20:25:46;18.38;;;14.80;;
44446;SDS011;30152;52.066;5.358;2023-05-07T20:28:12;21.15;;;15.20;;
44446;SDS011;30152;52.066;5.358;2023-05-07T20:30:38;20.90;;;14.88;;
44446;SDS011;30152;52.066;5.358;2023-05-07T20:33:04;22.45;;;15.20;;
44446;SDS011;30152;52.066;5.358;2023-05-07T20:35:31;21.58;;;15.30;;
44446;SDS011;30152;52.066;5.358;2023-05-07T20:37:57;21.88;;;14.75;;
44446;SDS011;30152;52.066;5.358;2023-05-07T20:40:24;20.33;;;15.48;;
44446;SDS011;30152;52.066;5.358;2023-05-07T20:42:51;21.50;;;16.45;;
44446;SDS011;30152;52.066;5.358;2023-05-07T20:45:16;21.70;;;16.45;;
44446;SDS011;30152;52.066;5.358;2023-05-07T20:47:42;21.80;;;16.55;;
44446;SDS011;30152;52.066;5.358;2023-05-07T20:50:08;19.83;;;15.35;;
44446;SDS011;30152;52.066;5.358;2023-05-07T20:52:34;20.00;;;15.10;;
44446;SDS011;30152;52.066;5.358;2023-05-07T20:55:00;19.05;;;15.13;;
44446;SDS011;30152;52.066;5.358;2023-05-07T20:57:26;22.52;;;15.75;;
44446;SDS011;30152;52.066;5.358;2023-05-07T20:59:52;19.27;;;15.73;;
44446;SDS011;30152;52.066;5.358;2023-05-07T21:02:18;19.73;;;14.68;;
44446;SDS011;30152;52.066;5.358;2023-05-07T21:04:44;21.70;;;14.50;;
44446;SDS011;30152;52.066;5.358;2023-05-07T21:07:11;20.65;;;14.30;;
44446;SDS011;30152;52.066;5.358;2023-05-07T21:09:37;19.58;;;14.77;;
44446;SDS011;30152;52.066;5.358;2023-05-07T21:12:02;21.02;;;15.57;;
